Aviation Digital Data Service (ADDS)

Output produced by METARs form (0947 UTC 21 February 2017)
found at http://www.aviationweather.gov/adds/metars/
 
KDUJ 210853Z AUTO 12012KT 10SM CLR 03/M07 A3016 RMK AO2 SLP218 T00331067 56012
KDUJ 210753Z AUTO 12011KT 10SM CLR 03/M06 A3017 RMK AO2 SLP220 T00331061
KDUJ 210653Z AUTO 12008KT 10SM CLR 04/M06 A3018 RMK AO2 SLP226 T00391061
KDUJ 210553Z AUTO 12006KT 10SM CLR 04/M06 A3020 RMK AO2 SLP232 T00441061 10100 20044 55012
KDUJ 210453Z AUTO 11009KT 10SM CLR 04/M06 A3019 RMK AO2 SLP232 T00441056 401391006
KDUJ 210353Z AUTO 09007KT 10SM CLR 04/M05 A3022 RMK AO2 SLP241 T00441050
KDUJ 210253Z AUTO 08005KT 10SM CLR 06/M05 A3023 RMK AO2 SLP247 T00561050 50006
KDUJ 210153Z AUTO 07005KT 10SM CLR 08/M04 A3024 RMK AO2 SLP249 T00781044
KDUJ 210053Z AUTO 10005KT 10SM CLR 09/M04 A3022 RMK AO2 SLP242 T00891039
KDUJ 202353Z AUTO 08004KT 10SM CLR 10/M04 A3022 RMK AO2 SLP242 T01001039 10139 20100 57001
KDUJ 202253Z AUTO 00000KT 10SM CLR 11/M03 A3022 RMK AO2 SLP241 T01111033
KDUJ 202153Z AUTO 06003KT 10SM CLR 13/M03 A3022 RMK AO2 SLP239 T01331028
KDUJ 202053Z AUTO 09003KT 10SM CLR 13/M02 A3022 RMK AO2 SLP239 T01331022 56004
KDUJ 201953Z AUTO 02006KT 10SM CLR 13/M02 A3022 RMK AO2 SLP239 T01281022
KDUJ 201853Z AUTO VRB03KT 10SM CLR 12/M02 A3022 RMK AO2 SLP239 T01221022
KDUJ 201753Z AUTO VRB05KT 10SM CLR 10/M02 A3023 RMK AO2 SLP244 T01001022 10100 21006 58006
KDUJ 201653Z AUTO VRB04KT 10SM CLR 09/M02 A3026 RMK AO2 SLP254 T00891022
KDUJ 201553Z AUTO 02006KT 10SM CLR 08/M02 A3028 RMK AO2 SLP260 T00831022
KDUJ 201453Z AUTO 04007KT 10SM CLR 06/M02 A3025 RMK AO2 SLP252 T00611017 50017
KDUJ 201353Z AUTO 33003KT 10SM CLR 03/M01 A3025 RMK AO2 SLP254 T00331011
KDUJ 201253Z AUTO 00000KT 10SM CLR 01/M02 A3022 RMK AO2 SLP244 T00111017
KDUJ 201153Z AUTO 00000KT 10SM CLR M01/M03 A3020 RMK AO2 SLP236 T10061028 10050 21006 53022 $
KDUJ 201053Z AUTO 27004KT 10SM CLR 02/M02 A3018 RMK AO2 SLP225 T00171022 $
KDUJ 200953Z AUTO 29004KT 10SM CLR 02/M02 A3015 RMK AO2 SLP213 T00221022 $
KDUJ 200853Z AUTO 26004KT 10SM CLR 03/M02 A3013 RMK AO2 SLP206 T00281017 50005
KDUJ 200753Z AUTO 27004KT 10SM CLR 03/M02 A3013 RMK AO2 SLP208 T00331017
KDUJ 200653Z AUTO 31004KT 10SM CLR 04/M02 A3012 RMK AO2 SLP202 T00441017
KDUJ 200553Z AUTO 33005KT 10SM CLR 05/M01 A3011 RMK AO2 SLP201 T00501011 10111 20050 51010
KDUJ 200453Z AUTO 30005KT 10SM CLR 06/M01 A3011 RMK AO2 SLP200 T00561011 401670044
KDUJ 200353Z AUTO 26003KT 10SM CLR 06/M02 A3010 RMK AO2 SLP199 T00611017
KDUJ 200253Z AUTO 30004KT 10SM CLR 07/M02 A3008 RMK AO2 SLP193 T00721022 51019
KDUJ 200153Z AUTO 31007KT 10SM CLR 08/M03 A3007 RMK AO2 SLP191 T00831028
KDUJ 200053Z AUTO 29007KT 10SM CLR 11/M03 A3005 RMK AO2 SLP180 T01061028
KDUJ 192353Z AUTO 29005KT 10SM CLR 11/M02 A3002 RMK AO2 SLP172 T01111022 10167 20111 53027
KDUJ 192253Z AUTO 30008KT 10SM CLR 13/M02 A2999 RMK AO2 SLP158 T01281022
KDUJ 192153Z AUTO 30008G17KT 10SM CLR 15/M02 A2996 RMK AO2 SLP147 T01501022